Time;durP1;ratioP1;P1;durP2;ratioP2;P2;SDS_P1;SDS_P2;PMS_P1;PMS_P2;Temp;Humidity;BMP_temperature;BMP_pressure;BME280_temperature;BME280_humidity;BME280_pressure;Samples;Min_cycle;Max_cycle;Signal;HPM_P1;HPM_P2
2021/10/20 00:01:58;;;;;;;4.10;3.20;;;;;;;9.12;100.00;96141.09;5056185;28;24415;-77
2021/10/20 00:04:24;;;;;;;5.03;3.70;;;;;;;9.06;100.00;96130.25;5057030;28;24489;-78
2021/10/20 00:06:51;;;;;;;7.50;3.45;;;;;;;9.00;100.00;96127.97;5057366;28;24423;-78
2021/10/20 00:09:18;;;;;;;4.88;3.03;;;;;;;8.98;100.00;96124.63;5057810;28;24436;-77
2021/10/20 00:11:44;;;;;;;4.18;3.35;;;;;;;9.00;100.00;96130.53;5057796;28;20747;-78
2021/10/20 00:14:11;;;;;;;5.57;3.25;;;;;;;8.97;100.00;96126.34;5057960;28;20759;-79
2021/10/20 00:16:39;;;;;;;4.07;3.13;;;;;;;8.99;100.00;96119.38;5057636;28;20761;-79
2021/10/20 00:19:05;;;;;;;5.30;3.45;;;;;;;9.04;100.00;96116.56;5057440;28;24415;-77
2021/10/20 00:21:32;;;;;;;3.27;2.80;;;;;;;9.00;100.00;96120.22;5056154;28;24415;-78
2021/10/20 00:23:59;;;;;;;5.00;3.33;;;;;;;8.93;100.00;96117.94;5056343;28;24465;-78
2021/10/20 00:26:26;;;;;;;3.30;3.00;;;;;;;8.92;100.00;96108.50;5056059;28;24477;-77
2021/10/20 00:28:52;;;;;;;4.72;3.15;;;;;;;8.90;100.00;96119.84;5057827;28;24489;-76
2021/10/20 00:31:19;;;;;;;7.63;3.47;;;;;;;8.93;100.00;96115.34;5057443;28;20751;-78
2021/10/20 00:33:47;;;;;;;5.30;3.17;;;;;;;8.98;100.00;96116.88;5055986;28;24438;-78
2021/10/20 00:36:13;;;;;;;3.42;3.08;;;;;;;8.96;100.00;96116.94;5055956;28;20759;-78
2021/10/20 00:38:40;;;;;;;4.55;3.13;;;;;;;8.94;100.00;96116.19;5056689;28;24941;-78
2021/10/20 00:41:07;;;;;;;4.93;3.28;;;;;;;8.97;100.00;96110.84;5056996;28;24454;-78
2021/10/20 00:43:33;;;;;;;4.07;3.10;;;;;;;8.91;100.00;96111.19;5057173;28;24469;-77
2021/10/20 00:46:00;;;;;;;5.00;3.03;;;;;;;8.91;100.00;96104.28;5056769;28;25011;-78
2021/10/20 00:48:26;;;;;;;4.88;3.42;;;;;;;8.80;100.00;96100.56;5057075;28;24422;-78
2021/10/20 00:50:54;;;;;;;9.85;3.45;;;;;;;8.73;100.00;96102.63;5057174;28;24427;-77
2021/10/20 00:53:21;;;;;;;4.05;3.35;;;;;;;8.61;100.00;96096.31;5056166;28;24423;-78
2021/10/20 00:55:47;;;;;;;6.10;3.40;;;;;;;8.43;100.00;96092.91;5057385;28;24553;-77
2021/10/20 00:58:14;;;;;;;3.17;2.88;;;;;;;8.48;100.00;96088.31;5058121;28;20758;-78
2021/10/20 01:00:41;;;;;;;3.80;3.08;;;;;;;8.45;100.00;96096.25;5057084;28;21118;-78
2021/10/20 01:03:08;;;;;;;4.63;3.35;;;;;;;8.41;100.00;96076.63;5054991;28;20758;-77
2021/10/20 01:05:35;;;;;;;5.88;3.08;;;;;;;8.35;100.00;96082.09;5054310;28;24423;-77
2021/10/20 01:08:03;;;;;;;5.32;3.40;;;;;;;8.26;100.00;96074.78;5054678;28;20930;-79
2021/10/20 01:10:30;;;;;;;3.72;2.80;;;;;;;8.18;100.00;96074.31;5054949;28;20903;-76
2021/10/20 01:12:56;;;;;;;4.07;3.08;;;;;;;8.15;100.00;96064.97;5055199;28;24442;-78
2021/10/20 01:15:25;;;;;;;4.38;3.10;;;;;;;8.14;100.00;96060.72;5055464;28;20754;-78
2021/10/20 01:17:52;;;;;;;4.57;2.95;;;;;;;8.13;100.00;96058.25;5053727;28;20762;-79
2021/10/20 01:20:20;;;;;;;5.32;2.90;;;;;;;8.23;100.00;96052.56;5054438;28;20833;-78
2021/10/20 01:22:48;;;;;;;5.00;3.17;;;;;;;8.17;100.00;96044.28;5057567;28;21159;-78
2021/10/20 01:25:15;;;;;;;3.92;2.85;;;;;;;8.13;100.00;96042.75;5056563;28;20802;-78
2021/10/20 01:27:43;;;;;;;5.20;3.28;;;;;;;8.08;100.00;96026.66;5057399;28;24431;-79
2021/10/20 01:30:10;;;;;;;4.33;3.00;;;;;;;8.02;100.00;96034.72;5057819;28;24932;-77
2021/10/20 01:32:37;;;;;;;3.15;2.90;;;;;;;7.96;100.00;96041.81;5056654;28;24480;-77
2021/10/20 01:35:04;;;;;;;3.93;3.00;;;;;;;7.83;100.00;96027.84;5056087;28;20850;-78
2021/10/20 01:37:30;;;;;;;6.75;3.67;;;;;;;7.80;100.00;96029.75;5055552;28;20792;-76
2021/10/20 01:39:58;;;;;;;6.13;3.20;;;;;;;7.75;100.00;96028.22;5053789;28;24470;-77
2021/10/20 01:42:25;;;;;;;3.70;3.20;;;;;;;7.72;100.00;96022.38;5054793;28;24473;-78
2021/10/20 01:44:52;;;;;;;3.40;3.10;;;;;;;7.65;100.00;96015.84;5056355;28;20805;-78
2021/10/20 01:47:18;;;;;;;4.07;3.15;;;;;;;7.67;100.00;96008.84;5055572;28;24426;-77
2021/10/20 01:49:45;;;;;;;5.50;4.00;;;;;;;7.70;100.00;96008.72;5056905;28;24419;-77
2021/10/20 01:52:12;;;;;;;5.57;3.20;;;;;;;7.72;100.00;95997.44;5056832;28;24459;-78
2021/10/20 01:54:38;;;;;;;4.47;3.33;;;;;;;7.73;100.00;96001.66;5056568;28;24419;-78
2021/10/20 01:57:06;;;;;;;5.13;3.70;;;;;;;7.78;100.00;95993.69;5056430;28;24442;-76
2021/10/20 01:59:32;;;;;;;5.65;3.55;;;;;;;7.81;100.00;96003.03;5055997;28;24415;-78
2021/10/20 02:01:59;;;;;;;4.45;3.40;;;;;;;7.79;100.00;95999.69;5055663;28;24427;-76
2021/10/20 02:04:25;;;;;;;4.20;3.70;;;;;;;7.80;100.00;95988.50;5055752;28;24423;-78
2021/10/20 02:06:52;;;;;;;4.40;3.97;;;;;;;7.78;100.00;95992.88;5053922;28;24509;-78
2021/10/20 02:09:18;;;;;;;6.40;4.38;;;;;;;7.78;100.00;95977.41;5053311;28;20755;-78
2021/10/20 02:11:45;;;;;;;4.97;3.85;;;;;;;7.85;100.00;95974.44;5053186;28;24422;-77
2021/10/20 02:14:13;;;;;;;11.43;2.95;;;;;;;7.89;100.00;95972.56;5055137;28;20824;-77
2021/10/20 02:16:41;;;;;;;3.40;3.10;;;;;;;7.99;100.00;95978.94;5054928;28;24438;-78
2021/10/20 02:19:08;;;;;;;4.82;2.92;;;;;;;8.07;100.00;95974.22;5055400;28;21141;-78
2021/10/20 02:21:34;;;;;;;4.88;3.47;;;;;;;8.10;100.00;95960.34;5056058;28;24530;-78
2021/10/20 02:24:01;;;;;;;5.28;3.05;;;;;;;8.15;100.00;95966.94;5055996;28;24423;-78
2021/10/20 02:26:27;;;;;;;4.38;3.17;;;;;;;8.12;100.00;95961.09;5055540;28;24450;-77
2021/10/20 02:28:54;;;;;;;6.55;3.30;;;;;;;8.11;100.00;95967.19;5056437;28;24435;-77
2021/10/20 02:31:22;;;;;;;4.60;3.10;;;;;;;8.10;100.00;95968.94;5059735;28;24821;-77
2021/10/20 02:33:49;;;;;;;4.82;3.33;;;;;;;8.22;100.00;95967.47;5059156;28;20759;-77
2021/10/20 02:36:16;;;;;;;4.35;3.20;;;;;;;8.16;100.00;95955.72;5058951;28;20793;-77
2021/10/20 02:38:42;;;;;;;4.82;3.08;;;;;;;8.07;100.00;95953.59;5059380;28;24419;-77
2021/10/20 02:41:08;;;;;;;3.60;3.03;;;;;;;8.03;100.00;95959.81;5059308;28;24459;-78
2021/10/20 02:43:37;;;;;;;3.20;2.90;;;;;;;8.00;100.00;95944.50;5060439;28;24419;-78
2021/10/20 02:46:04;;;;;;;5.50;3.10;;;;;;;8.00;100.00;95949.66;5060217;28;24736;-78
2021/10/20 02:48:32;;;;;;;4.57;2.80;;;;;;;8.08;100.00;95944.09;5060270;28;20770;-77
2021/10/20 02:50:59;;;;;;;3.90;3.00;;;;;;;8.09;100.00;95946.63;5059615;28;24979;-77
2021/10/20 02:53:25;;;;;;;4.20;2.95;;;;;;;7.96;100.00;95942.97;5059861;28;24449;-78
2021/10/20 02:55:51;;;;;;;5.00;2.90;;;;;;;7.96;100.00;95943.81;5058449;28;24992;-78
2021/10/20 02:58:18;;;;;;;4.25;2.90;;;;;;;7.93;100.00;95941.38;5059042;28;24521;-78
2021/10/20 03:00:44;;;;;;;5.60;2.83;;;;;;;7.93;100.00;95930.22;5058893;28;24447;-77
2021/10/20 03:03:11;;;;;;;3.65;2.80;;;;;;;7.96;100.00;95932.66;5056942;28;24424;-77
2021/10/20 03:05:39;;;;;;;3.65;3.03;;;;;;;7.89;100.00;95933.88;5056916;28;24430;-77
2021/10/20 03:08:05;;;;;;;3.85;2.78;;;;;;;7.88;100.00;95922.72;5058192;28;20766;-77
2021/10/20 03:10:31;;;;;;;2.88;2.60;;;;;;;7.91;100.00;95914.84;5057518;28;24415;-77
2021/10/20 03:12:58;;;;;;;7.60;3.10;;;;;;;7.77;100.00;95909.53;5058943;28;24956;-77
2021/10/20 03:15:24;;;;;;;5.13;2.80;;;;;;;7.80;100.00;95916.28;5058537;28;24979;-78
2021/10/20 03:17:51;;;;;;;4.32;3.10;;;;;;;7.83;100.00;95908.41;5059171;28;24430;-76
2021/10/20 03:20:17;;;;;;;4.00;2.50;;;;;;;7.90;100.00;95900.28;5058645;28;24451;-76
2021/10/20 03:22:46;;;;;;;2.77;2.40;;;;;;;7.90;100.00;95892.56;5058783;28;24785;-77
2021/10/20 03:25:14;;;;;;;3.25;2.67;;;;;;;7.85;100.00;95893.69;5058347;28;24844;-78
2021/10/20 03:27:42;;;;;;;4.80;2.75;;;;;;;7.61;100.00;95899.16;5059345;28;20759;-78
2021/10/20 03:30:09;;;;;;;4.93;2.97;;;;;;;7.43;100.00;95892.31;5056921;28;20853;-78
2021/10/20 03:32:36;;;;;;;6.10;3.35;;;;;;;7.40;100.00;95884.72;5058404;28;24419;-77
2021/10/20 03:35:03;;;;;;;4.30;2.70;;;;;;;7.28;100.00;95883.59;5058378;28;24415;-77
2021/10/20 03:37:29;;;;;;;3.78;2.83;;;;;;;7.32;100.00;95887.69;5058510;28;20767;-77
2021/10/20 03:39:57;;;;;;;5.95;3.00;;;;;;;7.19;100.00;95882.28;5057960;28;24418;-77
2021/10/20 03:42:24;;;;;;;5.20;2.60;;;;;;;7.17;100.00;95891.81;5056041;28;24969;-76
2021/10/20 03:44:51;;;;;;;4.47;2.92;;;;;;;7.26;100.00;95881.06;5056001;28;24489;-77
2021/10/20 03:47:19;;;;;;;7.78;5.75;;;;;;;7.29;100.00;95887.81;5056344;28;24431;-76
2021/10/20 03:49:45;;;;;;;8.18;6.10;;;;;;;7.40;100.00;95895.88;5056753;28;24431;-77
2021/10/20 03:52:12;;;;;;;5.43;3.47;;;;;;;7.48;100.00;95883.44;5056865;28;24461;-76
2021/10/20 03:54:38;;;;;;;5.90;3.08;;;;;;;7.51;100.00;95885.88;5055830;28;24431;-77
2021/10/20 03:57:06;;;;;;;8.00;3.30;;;;;;;7.45;100.00;95877.59;5059432;28;24435;-77
2021/10/20 03:59:33;;;;;;;5.68;2.97;;;;;;;7.45;100.00;95883.63;5060115;28;24427;-77
2021/10/20 04:01:59;;;;;;;10.65;2.88;;;;;;;7.49;100.00;95886.84;5057555;28;24973;-77
2021/10/20 04:04:26;;;;;;;3.38;2.67;;;;;;;7.57;100.00;95876.19;5056773;28;24971;-77
2021/10/20 04:06:52;;;;;;;4.20;2.90;;;;;;;7.59;100.00;95876.94;5056863;28;25102;-77
2021/10/20 04:09:19;;;;;;;6.35;2.70;;;;;;;7.63;100.00;95865.56;5057075;28;24419;-77
2021/10/20 04:11:45;;;;;;;5.78;3.33;;;;;;;7.64;100.00;95869.78;5056417;28;24435;-77
2021/10/20 04:14:13;;;;;;;6.45;4.18;;;;;;;7.62;100.00;95875.03;5056319;28;24445;-77
2021/10/20 04:16:40;;;;;;;5.30;3.55;;;;;;;7.63;100.00;95873.28;5055875;28;24443;-78
2021/10/20 04:19:06;;;;;;;5.25;3.75;;;;;;;7.63;100.00;95875.88;5055800;28;24853;-77
2021/10/20 04:21:33;;;;;;;8.25;5.40;;;;;;;7.64;100.00;95877.53;5056275;28;24965;-77
2021/10/20 04:23:59;;;;;;;10.63;5.68;;;;;;;7.68;100.00;95871.34;5057239;28;24411;-78
2021/10/20 04:26:26;;;;;;;7.57;5.15;;;;;;;7.71;100.00;95877.19;5057875;28;24427;-78
2021/10/20 04:28:52;;;;;;;8.77;3.95;;;;;;;7.73;100.00;95871.94;5056880;28;24415;-75
2021/10/20 04:31:20;;;;;;;3.90;3.08;;;;;;;7.70;100.00;95870.31;5040825;28;24430;-78
2021/10/20 04:33:46;;;;;;;3.17;2.85;;;;;;;7.74;100.00;95864.09;5056558;28;20819;-79
2021/10/20 04:36:13;;;;;;;2.97;2.67;;;;;;;7.76;100.00;95866.63;5059022;28;24435;-79
2021/10/20 04:38:39;;;;;;;3.45;2.72;;;;;;;7.82;100.00;95865.47;5058571;28;24501;-78
2021/10/20 04:41:06;;;;;;;3.20;2.53;;;;;;;7.86;100.00;95865.25;5054733;28;24439;-77
2021/10/20 04:43:32;;;;;;;3.58;2.72;;;;;;;7.83;100.00;95864.59;5057561;28;24415;-77
2021/10/20 04:45:58;;;;;;;3.35;2.40;;;;;;;7.87;100.00;95853.19;5054992;28;24427;-77
2021/10/20 04:48:26;;;;;;;3.93;2.40;;;;;;;7.93;100.00;95855.44;5056351;28;24443;-78
2021/10/20 04:50:53;;;;;;;2.85;2.50;;;;;;;7.89;100.00;95857.34;5057116;28;20812;-78
2021/10/20 04:53:19;;;;;;;3.50;2.40;;;;;;;7.79;100.00;95851.00;5055269;28;24423;-76
2021/10/20 04:55:46;;;;;;;2.75;2.45;;;;;;;7.79;100.00;95848.44;5055682;28;24824;-77
2021/10/20 04:58:12;;;;;;;5.30;3.63;;;;;;;7.78;100.00;95851.91;5055788;28;24423;-77
2021/10/20 05:00:39;;;;;;;4.53;3.87;;;;;;;7.81;100.00;95846.59;5054791;28;24435;-77
2021/10/20 05:03:05;;;;;;;5.63;3.00;;;;;;;7.81;100.00;95844.00;5053431;28;24446;-77
2021/10/20 05:05:33;;;;;;;4.25;3.20;;;;;;;7.72;100.00;95834.19;5054779;28;21116;-77
2021/10/20 05:08:00;;;;;;;3.88;2.70;;;;;;;7.63;100.00;95829.47;5053465;28;24427;-77
2021/10/20 05:10:27;;;;;;;5.75;3.03;;;;;;;7.40;100.00;95834.03;5052682;28;24415;-76
2021/10/20 05:12:54;;;;;;;3.58;2.67;;;;;;;7.47;100.00;95827.66;5053201;28;24421;-76
2021/10/20 05:15:21;;;;;;;3.37;2.83;;;;;;;7.51;100.00;95829.16;5053736;28;24422;-76
2021/10/20 05:17:48;;;;;;;3.95;2.90;;;;;;;7.54;100.00;95835.09;5053490;28;24484;-76
2021/10/20 05:20:16;;;;;;;5.93;3.03;;;;;;;7.52;100.00;95838.56;5053918;28;24446;-75
2021/10/20 05:22:44;;;;;;;3.17;2.60;;;;;;;7.53;100.00;95816.22;5053617;28;24440;-77
2021/10/20 05:25:12;;;;;;;4.00;3.60;;;;;;;7.53;100.00;95813.66;5052431;28;25004;-76
2021/10/20 05:27:39;;;;;;;3.22;2.92;;;;;;;7.45;100.00;95818.31;5051532;28;24841;-76
2021/10/20 05:30:07;;;;;;;4.50;2.80;;;;;;;7.19;100.00;95823.03;5051924;28;24988;-75
2021/10/20 05:32:34;;;;;;;10.68;6.35;;;;;;;6.99;100.00;95816.25;5052344;28;20788;-76
2021/10/20 05:35:00;;;;;;;10.45;8.32;;;;;;;6.97;100.00;95815.50;5052251;28;24423;-76
2021/10/20 05:37:27;;;;;;;11.20;6.03;;;;;;;6.80;100.00;95815.47;5051710;28;24438;-75
2021/10/20 05:39:54;;;;;;;5.57;3.80;;;;;;;6.81;100.00;95808.59;5051433;28;24976;-76
2021/10/20 05:42:21;;;;;;;7.03;4.35;;;;;;;6.98;100.00;95816.34;5051240;28;24454;-75
2021/10/20 05:44:48;;;;;;;5.93;3.10;;;;;;;7.00;100.00;95817.91;5053125;28;24438;-77
2021/10/20 05:47:15;;;;;;;5.10;3.30;;;;;;;6.82;100.00;95808.50;5052747;28;24423;-75
2021/10/20 05:49:42;;;;;;;5.88;2.95;;;;;;;6.87;100.00;95800.56;5051510;28;24431;-76
2021/10/20 05:52:08;;;;;;;5.75;3.10;;;;;;;6.85;100.00;95807.53;5052650;28;24420;-78
2021/10/20 05:54:35;;;;;;;4.20;3.35;;;;;;;6.79;100.00;95806.91;5051670;28;24494;-76
2021/10/20 05:57:03;;;;;;;4.18;3.17;;;;;;;6.63;100.00;95812.84;5051216;28;24415;-76
2021/10/20 05:59:29;;;;;;;5.07;3.53;;;;;;;6.45;100.00;95811.94;5050897;28;24427;-75
2021/10/20 06:01:56;;;;;;;5.75;3.35;;;;;;;6.36;100.00;95808.06;5051650;28;24442;-76
2021/10/20 06:04:22;;;;;;;3.90;2.97;;;;;;;6.28;100.00;95805.84;5050357;28;24423;-77
2021/10/20 06:06:49;;;;;;;3.88;2.70;;;;;;;6.29;100.00;95804.09;5050386;28;24446;-77
2021/10/20 06:09:15;;;;;;;5.45;3.00;;;;;;;6.37;100.00;95808.91;5050779;28;24988;-77
2021/10/20 06:11:42;;;;;;;4.65;2.67;;;;;;;6.42;100.00;95812.94;5050349;28;24473;-77
2021/10/20 06:14:09;;;;;;;4.10;2.50;;;;;;;6.50;100.00;95816.00;5050777;28;24426;-77
2021/10/20 06:16:36;;;;;;;6.00;2.90;;;;;;;6.54;100.00;95816.69;5050387;28;24434;-77
2021/10/20 06:19:04;;;;;;;4.95;2.95;;;;;;;6.58;100.00;95825.09;5050781;28;24446;-77
2021/10/20 06:21:30;;;;;;;2.85;2.42;;;;;;;6.64;100.00;95822.25;5050609;28;24446;-77
2021/10/20 06:23:57;;;;;;;2.60;2.40;;;;;;;6.80;100.00;95833.50;5050317;28;24418;-77
2021/10/20 06:26:23;;;;;;;2.33;2.13;;;;;;;7.01;100.00;95835.06;5050027;28;24411;-77
2021/10/20 06:28:50;;;;;;;5.15;2.78;;;;;;;7.08;100.00;95827.84;5050641;28;24423;-77
2021/10/20 06:31:18;;;;;;;3.55;2.75;;;;;;;7.08;100.00;95832.16;5050213;28;24772;-77
2021/10/20 06:33:44;;;;;;;3.25;2.55;;;;;;;7.11;100.00;95830.28;5050390;28;24423;-77
2021/10/20 06:36:20;;;;;;;5.22;2.53;;;;;;;7.26;100.00;95823.56;5049981;28;24469;-77
2021/10/20 06:38:46;;;;;;;5.43;3.00;;;;;;;7.63;100.00;95819.16;5049960;28;24957;-77
2021/10/20 06:41:13;;;;;;;3.35;2.92;;;;;;;7.76;100.00;95815.06;5052144;28;24549;-77
2021/10/20 06:43:39;;;;;;;3.83;2.92;;;;;;;7.92;100.00;95809.94;5051233;28;24426;-77
2021/10/20 06:46:06;;;;;;;3.90;3.22;;;;;;;8.02;100.00;95805.97;5050623;28;24465;-77
2021/10/20 06:48:33;;;;;;;2.97;2.70;;;;;;;8.20;100.00;95807.59;5050620;28;24428;-77
2021/10/20 06:51:00;;;;;;;4.45;3.10;;;;;;;8.33;100.00;95805.19;5051376;28;24411;-79
2021/10/20 06:53:26;;;;;;;5.78;3.17;;;;;;;8.46;100.00;95795.91;5054409;28;24644;-79
2021/10/20 06:55:53;;;;;;;5.03;2.88;;;;;;;8.73;100.00;95793.56;5053472;28;20755;-79
2021/10/20 06:58:19;;;;;;;4.40;2.50;;;;;;;8.93;100.00;95781.28;5054595;28;24454;-75
2021/10/20 07:00:46;;;;;;;4.45;3.10;;;;;;;9.11;99.92;95782.84;5052000;28;20801;-77
2021/10/20 07:03:12;;;;;;;4.93;3.10;;;;;;;9.13;96.29;95775.03;5053775;28;24438;-77
2021/10/20 07:05:40;;;;;;;4.35;2.67;;;;;;;9.14;95.65;95776.69;5052648;28;24481;-77
2021/10/20 07:08:06;;;;;;;3.92;2.80;;;;;;;9.32;94.68;95779.97;5050482;28;20808;-77
2021/10/20 07:10:33;;;;;;;3.10;2.78;;;;;;;9.36;93.99;95784.03;5051003;28;24434;-77
2021/10/20 07:12:59;;;;;;;8.30;3.30;;;;;;;9.50;93.44;95776.31;5051171;28;24433;-78
2021/10/20 07:15:26;;;;;;;15.80;3.45;;;;;;;9.55;92.42;95776.88;5050447;28;24481;-77
2021/10/20 07:17:52;;;;;;;18.20;3.63;;;;;;;9.44;93.67;95779.25;5054844;28;24433;-78
2021/10/20 07:20:18;;;;;;;11.40;3.30;;;;;;;9.63;92.74;95790.16;5053775;28;24507;-78
2021/10/20 07:22:46;;;;;;;7.82;2.70;;;;;;;9.61;92.33;95783.44;5054807;28;21442;-76
2021/10/20 07:25:14;;;;;;;22.98;3.90;;;;;;;9.66;92.96;95781.41;5053641;28;20830;-76
2021/10/20 07:27:42;;;;;;;6.40;2.85;;;;;;;9.81;92.30;95770.16;5053982;28;21166;-77
2021/10/20 07:30:11;;;;;;;4.97;2.55;;;;;;;9.80;92.15;95770.25;5054879;28;20816;-77
2021/10/20 07:32:39;;;;;;;3.97;2.65;;;;;;;9.99;90.98;95768.22;5054384;28;24470;-79
2021/10/20 07:35:06;;;;;;;3.75;2.70;;;;;;;10.18;90.54;95760.16;5053891;28;24526;-77
2021/10/20 07:37:32;;;;;;;5.60;2.77;;;;;;;10.29;91.08;95754.38;5053631;28;24422;-76
2021/10/20 07:40:01;;;;;;;4.40;3.08;;;;;;;10.43;88.83;95748.34;5046618;28;24434;-76
2021/10/20 07:42:27;;;;;;;3.40;2.70;;;;;;;10.37;88.80;95750.38;5044442;28;24452;-77
2021/10/20 07:44:54;;;;;;;3.08;2.78;;;;;;;10.34;89.08;95735.03;5036391;28;24988;-77
2021/10/20 07:47:24;;;;;;;3.45;2.55;;;;;;;10.36;88.66;95740.13;5033027;28;24432;-76
2021/10/20 07:49:50;;;;;;;3.50;2.70;;;;;;;10.26;90.40;95737.25;5033608;28;24436;-77
2021/10/20 07:52:18;;;;;;;3.47;2.40;;;;;;;10.54;90.10;95736.38;5034089;28;24481;-76
2021/10/20 07:54:44;;;;;;;3.08;2.53;;;;;;;10.80;89.20;95734.72;5033652;28;24527;-77
2021/10/20 07:57:12;;;;;;;3.65;2.88;;;;;;;11.10;88.56;95728.47;5032953;28;25039;-76
2021/10/20 07:59:38;;;;;;;3.20;2.60;;;;;;;11.36;88.80;95718.97;5039580;28;24822;-77
2021/10/20 08:02:05;;;;;;;5.20;2.70;;;;;;;11.68;85.83;95715.97;5053101;28;24497;-76
2021/10/20 08:04:31;;;;;;;3.45;2.80;;;;;;;11.70;86.11;95706.34;5052644;28;24416;-77
2021/10/20 08:06:58;;;;;;;3.53;2.60;;;;;;;12.02;85.66;95709.34;5052520;28;24426;-77
2021/10/20 08:09:24;;;;;;;4.00;2.90;;;;;;;12.30;84.80;95697.84;5053177;28;24423;-76
2021/10/20 08:11:51;;;;;;;6.13;2.63;;;;;;;12.46;84.65;95705.38;5052703;28;24427;-77
2021/10/20 08:14:18;;;;;;;4.17;2.67;;;;;;;12.35;84.66;95706.97;5052684;28;24423;-75
2021/10/20 08:16:45;;;;;;;6.53;2.55;;;;;;;12.41;85.26;95700.50;5051686;28;24470;-76
2021/10/20 08:19:11;;;;;;;3.40;2.55;;;;;;;12.43;85.89;95701.25;5053000;28;24472;-75
2021/10/20 08:21:38;;;;;;;4.15;2.63;;;;;;;12.62;85.08;95697.31;5053090;28;24411;-78
2021/10/20 08:24:04;;;;;;;8.68;2.90;;;;;;;12.64;85.08;95703.22;5055058;28;24446;-78
2021/10/20 08:26:31;;;;;;;3.70;2.38;;;;;;;12.79;85.54;95707.31;5053746;28;24411;-77
2021/10/20 08:28:57;;;;;;;2.85;2.42;;;;;;;13.03;84.02;95702.94;5051034;28;24426;-76
2021/10/20 08:31:25;;;;;;;3.47;2.50;;;;;;;13.15;83.71;95709.00;5032256;28;24416;-76
2021/10/20 08:33:52;;;;;;;4.22;2.40;;;;;;;13.23;83.01;95711.88;5032358;28;24415;-76
2021/10/20 08:36:18;;;;;;;4.53;2.38;;;;;;;13.24;82.87;95717.94;5032022;28;24424;-77
2021/10/20 08:38:44;;;;;;;5.03;2.63;;;;;;;13.32;82.65;95716.41;5032016;28;24434;-77
2021/10/20 08:41:11;;;;;;;4.43;2.33;;;;;;;13.38;81.64;95712.50;5032040;28;24412;-77
2021/10/20 08:43:38;;;;;;;4.30;2.50;;;;;;;13.51;81.16;95709.84;5031763;28;24451;-75
2021/10/20 08:46:05;;;;;;;3.28;2.30;;;;;;;13.52;82.50;95701.91;5031692;28;24481;-77
2021/10/20 08:48:33;;;;;;;3.50;2.20;;;;;;;13.72;81.38;95707.34;5032043;28;24428;-78
2021/10/20 08:51:02;;;;;;;4.85;2.35;;;;;;;14.19;79.67;95703.69;5032354;28;24420;-78
2021/10/20 08:53:29;;;;;;;4.90;2.47;;;;;;;14.47;78.78;95702.38;5032738;28;24428;-76
2021/10/20 08:55:56;;;;;;;5.63;2.58;;;;;;;14.57;78.34;95691.22;5032319;28;24422;-78
2021/10/20 08:58:23;;;;;;;2.30;2.10;;;;;;;14.79;77.61;95677.28;5032377;28;24789;-76
2021/10/20 09:00:50;;;;;;;3.92;2.28;;;;;;;14.91;78.10;95684.16;5050395;28;24989;-77
2021/10/20 09:03:17;;;;;;;2.60;2.10;;;;;;;15.06;77.59;95685.50;5052876;28;24450;-77
2021/10/20 09:05:45;;;;;;;4.30;2.33;;;;;;;15.30;76.43;95680.03;5052909;28;24493;-79
2021/10/20 09:08:13;;;;;;;3.00;2.22;;;;;;;15.58;76.43;95680.34;5054661;28;24435;-79
2021/10/20 09:10:40;;;;;;;3.10;2.10;;;;;;;15.81;76.31;95667.97;5053451;28;25008;-77
2021/10/20 09:13:06;;;;;;;4.88;2.22;;;;;;;15.85;76.47;95664.16;5053534;28;24423;-78
2021/10/20 09:15:34;;;;;;;5.45;2.72;;;;;;;15.88;76.46;95663.88;5052893;28;24423;-76
2021/10/20 09:18:04;;;;;;;5.07;2.23;;;;;;;15.94;77.40;95663.34;5053584;28;24987;-78
2021/10/20 09:20:33;;;;;;;3.35;2.05;;;;;;;16.03;76.01;95646.06;5052456;28;24957;-77
2021/10/20 09:23:04;;;;;;;4.97;2.20;;;;;;;16.25;75.77;95645.03;5053605;28;24443;-77
2021/10/20 09:25:42;;;;;;;4.95;2.20;;;;;;;16.52;75.16;95642.59;5053414;28;24418;-77
2021/10/20 09:28:11;;;;;;;3.70;2.17;;;;;;;16.69;76.35;95643.72;5054303;28;24431;-77
2021/10/20 09:30:39;;;;;;;4.03;2.30;;;;;;;16.81;75.08;95642.66;5052743;28;24817;-77
2021/10/20 09:33:07;;;;;;;3.60;2.17;;;;;;;16.95;74.89;95643.22;5052666;28;24518;-77
2021/10/20 09:35:34;;;;;;;7.05;1.88;;;;;;;16.97;73.47;95646.50;5052277;28;24438;-77
2021/10/20 09:38:04;;;;;;;2.30;1.83;;;;;;;17.11;72.35;95636.44;5052010;28;24466;-77
2021/10/20 09:40:39;;;;;;;3.77;1.97;;;;;;;17.26;71.87;95636.00;5051962;28;24426;-76
2021/10/20 09:43:06;;;;;;;3.13;1.88;;;;;;;17.45;71.12;95620.25;5051782;28;24845;-77
2021/10/20 09:45:36;;;;;;;9.73;2.13;;;;;;;17.65;71.01;95631.50;5053589;28;24431;-77
2021/10/20 09:48:17;;;;;;;2.70;1.80;;;;;;;17.93;69.68;95624.53;5053043;28;24428;-78
2021/10/20 09:51:04;;;;;;;3.28;1.70;;;;;;;17.97;68.86;95609.34;5053174;28;24450;-78
2021/10/20 09:53:33;;;;;;;2.58;1.77;;;;;;;18.01;67.29;95614.13;5053423;28;24462;-77
2021/10/20 09:56:01;;;;;;;2.67;1.58;;;;;;;17.94;68.14;95623.53;5053024;28;24432;-78
2021/10/20 09:58:35;;;;;;;2.05;1.58;;;;;;;17.86;68.85;95616.41;5052999;28;24427;-78
2021/10/20 10:01:02;;;;;;;3.50;1.60;;;;;;;17.85;68.29;95617.38;5056204;28;24435;-78
2021/10/20 10:03:30;;;;;;;3.03;1.75;;;;;;;18.06;67.55;95611.09;5057117;28;24494;-78
2021/10/20 10:05:56;;;;;;;4.05;2.08;;;;;;;18.18;67.97;95616.97;5054569;28;24435;-78
2021/10/20 10:08:23;;;;;;;2.45;1.42;;;;;;;18.34;66.66;95604.03;5051963;28;24481;-77
2021/10/20 10:10:51;;;;;;;2.00;1.80;;;;;;;18.26;67.05;95602.13;5051723;28;24442;-78
2021/10/20 10:13:22;;;;;;;2.00;1.50;;;;;;;18.42;64.32;95601.47;5051435;28;24797;-79
2021/10/20 10:15:50;;;;;;;9.73;1.90;;;;;;;18.41;65.84;95604.25;5051492;28;24426;-78
2021/10/20 10:18:18;;;;;;;15.00;1.70;;;;;;;18.32;63.81;95611.22;5051614;28;24558;-78
2021/10/20 10:20:46;;;;;;;2.33;1.70;;;;;;;18.37;63.95;95609.78;5051615;28;24940;-79
2021/10/20 10:23:20;;;;;;;3.05;1.63;;;;;;;18.27;63.37;95610.81;5051539;28;24501;-78
2021/10/20 10:25:58;;;;;;;3.00;1.60;;;;;;;18.25;62.83;95615.41;5052166;28;24428;-77
2021/10/20 10:28:27;;;;;;;8.93;1.63;;;;;;;18.29;63.60;95601.03;5052353;28;24439;-79
2021/10/20 10:30:55;;;;;;;1.77;1.23;;;;;;;18.42;62.50;95604.09;5051952;28;24430;-78
2021/10/20 10:33:26;;;;;;;2.95;1.70;;;;;;;18.57;61.68;95599.16;5052079;28;24423;-78
2021/10/20 10:36:10;;;;;;;2.10;1.40;;;;;;;18.75;61.84;95607.88;5051664;28;24422;-79
2021/10/20 10:38:39;;;;;;;2.65;1.60;;;;;;;18.75;63.71;95614.94;5051589;28;24439;-79
2021/10/20 10:41:21;;;;;;;2.47;1.50;;;;;;;18.80;63.46;95610.06;5051735;28;24431;-79
2021/10/20 10:44:17;;;;;;;6.18;2.03;;;;;;;18.76;63.22;95604.31;5052196;28;24442;-79
2021/10/20 10:46:53;;;;;;;3.13;1.70;;;;;;;18.78;62.37;95606.78;5052241;28;24458;-79
2021/10/20 10:49:28;;;;;;;2.35;1.50;;;;;;;18.63;61.48;95603.81;5052163;28;24434;-77
2021/10/20 10:52:06;;;;;;;3.70;1.85;;;;;;;18.63;62.01;95603.81;5055104;28;24419;-78
2021/10/20 10:54:36;;;;;;;2.80;1.40;;;;;;;18.73;61.93;95601.16;5056184;28;24446;-78
2021/10/20 10:57:14;;;;;;;2.67;1.50;;;;;;;18.73;62.97;95601.16;5056786;28;24423;-78
2021/10/20 10:59:53;;;;;;;2.13;1.67;;;;;;;18.77;63.42;95599.88;5055941;28;24991;-77
2021/10/20 11:02:46;;;;;;;2.90;1.57;;;;;;;18.83;62.84;95592.22;5056145;28;24778;-79
2021/10/20 11:05:13;;;;;;;3.67;1.95;;;;;;;18.89;62.87;95596.03;5055495;28;24431;-78
2021/10/20 11:07:44;;;;;;;3.03;1.42;;;;;;;18.94;62.51;95585.91;5056171;28;24485;-79
2021/10/20 11:10:10;;;;;;;4.35;1.55;;;;;;;18.91;62.26;95578.34;5056010;28;24461;-77
2021/10/20 11:12:39;;;;;;;2.72;1.60;;;;;;;18.93;62.47;95573.75;5055873;28;24423;-77
2021/10/20 11:15:06;;;;;;;2.75;1.65;;;;;;;19.07;62.58;95567.97;5055248;28;24473;-80
2021/10/20 11:17:33;;;;;;;3.50;1.70;;;;;;;19.12;62.62;95564.06;5056001;28;24493;-77
2021/10/20 11:20:05;;;;;;;3.28;1.63;;;;;;;19.22;61.70;95560.34;5055892;28;24424;-80
2021/10/20 11:22:33;;;;;;;3.88;1.55;;;;;;;19.16;61.54;95563.59;5055774;28;24407;-79
2021/10/20 11:25:02;;;;;;;2.38;1.40;;;;;;;19.07;62.08;95562.72;5055144;28;25006;-79
2021/10/20 11:27:29;;;;;;;2.42;1.75;;;;;;;19.02;62.86;95565.00;5055796;28;24442;-77
2021/10/20 11:29:57;;;;;;;2.53;1.60;;;;;;;19.08;62.55;95563.53;5055585;28;24431;-79
2021/10/20 11:32:24;;;;;;;1.90;1.57;;;;;;;19.22;62.29;95557.72;5055948;28;24422;-77
2021/10/20 11:34:52;;;;;;;1.83;1.30;;;;;;;19.40;61.76;95562.94;5056009;28;24415;-78
2021/10/20 11:37:22;;;;;;;1.73;1.48;;;;;;;19.67;60.96;95542.72;5055762;28;24422;-78